• Join FlightAware (Why Join?)
  • Login
  • US Flag 
11:53PM EST


 

Airport Tracker/Info


-or-


 

Live Flight TrackerFlight Track Log ✈ UCA3596 ✈ 05-Oct-2013 ✈ KIAD - KBGM

Flight Track Log - Related Links

Times and Time Zones

All times are in EDT time to prevent confusion due to time zone crossing. See the UCA3596 flight status page for this flight to view local times or setup timezone preferences in your user account.

Time Position Orientation Groundspeed Altitude Reporting Facility
EDT Latitude Longitude Course Direction KTS MPH feet Rate Location/Type
01:22PM 39.4153 -77.2567 19° North  Level Estimated
01:23PM 39.4748 -77.2307 19° North  Level Estimated
01:24PM 39.5343 -77.2046 19° North  Level Estimated
01:25PM 39.5938 -77.1784 19° North  Level Estimated
01:26PM 39.6533 -77.1522 19° North  Level Estimated
01:27PM 39.7128 -77.1260 19° North  Level Estimated
01:28PM 39.7723 -77.0997 19° North  Level Estimated
01:29PM 39.8317 -77.0734 19° North  Level Estimated
01:30PM 39.8912 -77.0470 19° North  Level Estimated
01:31PM 39.9507 -77.0206 19° North  Level Estimated
01:32PM 40.0102 -76.9941 19° North  Level Estimated
01:33PM 40.0696 -76.9676 19° North  Level Estimated
01:34PM 40.1291 -76.9410 19° North  Level Estimated
01:35PM 40.1885 -76.9144 19° North  Level Estimated
01:36PM 40.2479 -76.8878 19° North  Level Estimated
01:37PM 40.3074 -76.8611 19° North  Level Estimated
01:38PM 40.3668 -76.8343 19° North  Level Estimated
01:39PM 40.4262 -76.8075 19° North  Level Estimated
01:40PM 40.4856 -76.7807 19° North  Level Estimated
01:41PM 40.5450 -76.7538 19° North  Level Estimated
01:42PM 40.6044 -76.7269 19° North  Level Estimated
01:43PM 40.6638 -76.6999 19° North  Level Estimated
01:44PM 40.7232 -76.6729 19° North  Level Estimated
01:45PM 40.7826 -76.6458 19° North  Level Estimated
01:46PM 40.8420 -76.6187 19° North  Level Estimated
01:47PM 40.9013 -76.5915 19° North  Level Estimated
01:48PM 40.9607 -76.5642 19° North  Level Estimated
01:49PM 41.0201 -76.5370 19° North  Level Estimated
01:50PM 41.0794 -76.5096 19° North  Level Estimated
01:51PM 41.1388 -76.4823 19° North  Level Estimated
01:52PM 41.1981 -76.4548 19° North  Level Estimated
01:53PM 41.2574 -76.4274 19° North  Level Estimated
01:54PM 41.3167 -76.3999 19° North  Level Estimated
01:55PM 41.3761 -76.3723 19° North  Level Estimated
01:56PM 41.4354 -76.3447 19° North  Level Estimated
01:57PM 41.4947 -76.3170 19° North  Level Estimated
01:58PM 41.5540 -76.2893 19° North  Level Estimated
01:59PM 41.6133 -76.2615 19° North  Level Estimated
02:00PM 41.6726 -76.2337 19° North  Level Estimated
02:01PM 41.7318 -76.2058 19° North  Level Estimated
02:02PM 41.7911 -76.1778 19° North  Level Estimated
02:03PM 41.8504 -76.1499 19° North  Level Estimated
02:04PM 41.9096 -76.1218 19° North  Level Estimated
02:05PM 41.9689 -76.0937 19° North  Level Estimated
02:06PM 42.0281 -76.0656 19° North  Level Estimated
02:07PM 42.0873 -76.0374 19° North  Level Estimated
02:08PM 42.1466 -76.0092 19° North  Level Estimated
02:09PM 42.2058 -75.9809 19° North  Level Estimated
02:10PM 42.2084 -75.9796 19° North  Level Estimated
02:11PM 42.2084 -75.9796 35° Northeast  Level Estimated
02:12PM 42.2084 -75.9796 35° Northeast  Level Estimated
02:13PM 42.2084 -75.9796 35° Northeast  Level Estimated
02:14PM 42.2084 -75.9796 35° Northeast  Level Estimated
02:15PM 42.2084 -75.9796 35° Northeast  Level Estimated
02:16PM 42.2084 -75.9796 35° Northeast  Level Estimated
02:17PM 42.2084 -75.9796 35° Northeast  Level Estimated
02:18PM 42.2084 -75.9796 35° Northeast  Level Estimated
02:19PM 42.2084 -75.9796 35° Northeast  Level Estimated
02:20PM 42.2084 -75.9796 35° Northeast  Level Estimated
02:21PM 42.2084 -75.9796 35° Northeast  Level Estimated